Time,TemperatureF,DewpointF,PressureIn,WindDirection,WindDirectionDegrees,WindSpeedMPH,WindSpeedGustMPH,Humidity,HourlyPrecipIn,Conditions,Clouds,dailyrainin,SolarRadiationWatts/m^2,SoftwareType,DateUTC
2013-10-08 01:42:00,48.0,43.0,-100.00,SE,129,5.0,9.0,82,-99.99,,,0.00,0.000000,,2013-10-08 07:42:00,
2013-10-08 02:52:00,46.0,40.0,-100.00,NNE,16,5.0,9.0,79,-99.99,,,0.00,0.000000,,2013-10-08 08:52:00,
2013-10-08 04:42:00,47.0,41.0,-100.00,North,7,3.0,6.0,79,0.00,,,0.00,0.000000,,2013-10-08 10:42:00,
2013-10-08 04:53:00,47.0,41.0,-100.00,North,7,3.0,6.0,79,0.00,,,0.00,0.000000,,2013-10-08 10:53:00,
2013-10-08 06:42:00,43.0,40.0,-100.00,SE,125,3.0,6.0,88,0.00,,,0.00,0.000000,,2013-10-08 12:42:00,
2013-10-08 06:52:00,43.0,40.0,-100.00,SE,125,3.0,6.0,88,0.00,,,0.00,0.000000,,2013-10-08 12:52:00,
2013-10-08 07:42:00,43.0,38.0,-100.00,SE,134,5.0,8.0,84,0.00,,,0.00,0.000000,,2013-10-08 13:42:00,
2013-10-08 07:52:00,43.0,38.0,-100.00,SE,134,5.0,8.0,84,0.00,,,0.00,0.000000,,2013-10-08 13:52:00,
2013-10-08 08:42:00,43.0,39.0,-100.00,SSE,156,7.0,10.0,86,0.00,,,0.00,13.000000,,2013-10-08 14:42:00,
2013-10-08 08:52:00,43.0,39.0,-100.00,SSE,156,7.0,10.0,86,0.00,,,0.00,13.000000,,2013-10-08 14:52:00,
2013-10-08 10:53:00,53.0,42.0,-100.00,SSE,157,6.0,9.0,67,0.00,,,-99.99,264.000000,,2013-10-08 16:53:00,
2013-10-08 12:22:00,60.0,41.0,-100.00,NE,50,5.0,8.0,49,0.00,,,0.00,306.000000,,2013-10-08 18:22:00,
2013-10-08 12:32:00,60.0,41.0,-100.00,NE,50,5.0,8.0,49,0.00,,,0.00,306.000000,,2013-10-08 18:32:00,
2013-10-08 12:42:00,60.0,41.0,-100.00,NE,50,5.0,8.0,49,0.00,,,0.00,306.000000,,2013-10-08 18:42:00,
2013-10-08 12:52:00,60.0,41.0,-100.00,NE,50,5.0,8.0,49,0.00,,,0.00,306.000000,,2013-10-08 18:52:00,
2013-10-08 13:21:00,62.0,35.0,-100.00,East,85,8.0,14.0,36,0.00,,,0.00,425.000000,,2013-10-08 19:21:00,
2013-10-08 13:32:00,62.0,35.0,-100.00,East,85,8.0,14.0,36,0.00,,,0.00,425.000000,,2013-10-08 19:32:00,
2013-10-08 13:42:00,62.0,35.0,-100.00,East,85,8.0,14.0,36,0.00,,,0.00,425.000000,,2013-10-08 19:42:00,
2013-10-08 13:52:00,62.0,35.0,-100.00,East,85,8.0,14.0,36,0.00,,,0.00,425.000000,,2013-10-08 19:52:00,
2013-10-08 14:22:00,61.0,34.0,-100.00,East,86,8.0,15.0,36,0.00,,,0.00,358.000000,,2013-10-08 20:22:00,
2013-10-08 14:32:00,61.0,34.0,-100.00,East,86,8.0,15.0,36,0.00,,,0.00,358.000000,,2013-10-08 20:32:00,
2013-10-08 14:42:00,61.0,34.0,-100.00,East,86,8.0,15.0,36,0.00,,,0.00,358.000000,,2013-10-08 20:42:00,
2013-10-08 14:52:00,61.0,34.0,-100.00,East,86,8.0,15.0,36,0.00,,,0.00,358.000000,,2013-10-08 20:52:00,
2013-10-08 15:22:00,61.0,35.0,-100.00,ENE,72,8.0,14.0,38,0.00,,,0.00,278.000000,,2013-10-08 21:22:00,
2013-10-08 15:34:00,61.0,35.0,-100.00,ENE,72,8.0,14.0,38,0.00,,,0.00,278.000000,,2013-10-08 21:34:00,
2013-10-08 15:44:00,61.0,35.0,-100.00,ENE,72,8.0,14.0,38,0.00,,,0.00,278.000000,,2013-10-08 21:44:00,
2013-10-08 15:54:00,61.0,35.0,-100.00,ENE,72,8.0,14.0,38,0.00,,,0.00,278.000000,,2013-10-08 21:54:00,
2013-10-08 16:45:00,61.0,35.0,-100.00,NE,54,6.0,14.0,38,0.00,,,0.00,209.000000,,2013-10-08 22:45:00,
2013-10-08 16:55:00,61.0,35.0,-100.00,NE,54,6.0,14.0,38,0.00,,,0.00,209.000000,,2013-10-08 22:55:00,
2013-10-08 17:22:00,59.0,35.0,-100.00,NNE,18,6.0,12.0,40,0.00,,,0.00,170.000000,,2013-10-08 23:22:00,
2013-10-08 17:34:00,59.0,35.0,-100.00,NNE,18,6.0,12.0,40,0.00,,,0.00,170.000000,,2013-10-08 23:34:00,
2013-10-08 17:42:00,59.0,35.0,-100.00,NNE,18,6.0,12.0,40,0.00,,,0.00,170.000000,,2013-10-08 23:42:00,
2013-10-08 17:52:00,59.0,35.0,-100.00,NNE,18,6.0,12.0,40,0.00,,,0.00,170.000000,,2013-10-08 23:52:00,
2013-10-08 18:22:00,56.0,34.0,-100.00,North,4,6.0,14.0,43,0.00,,,0.00,106.000000,,2013-10-09 00:22:00,
2013-10-08 18:32:00,56.0,34.0,-100.00,North,4,6.0,14.0,43,0.00,,,0.00,106.000000,,2013-10-09 00:32:00,
2013-10-08 18:42:00,56.0,34.0,-100.00,North,4,6.0,14.0,43,0.00,,,0.00,106.000000,,2013-10-09 00:42:00,
2013-10-08 18:52:00,56.0,34.0,-100.00,North,4,6.0,14.0,43,0.00,,,0.00,106.000000,,2013-10-09 00:52:00,
2013-10-08 19:43:00,54.0,33.0,-100.00,NNE,18,4.0,11.0,45,0.00,,,-99.99,8.000000,,2013-10-09 01:43:00,
2013-10-08 19:52:00,54.0,33.0,-100.00,NNE,18,4.0,11.0,45,0.00,,,-99.99,8.000000,,2013-10-09 01:52:00,
2013-10-08 20:22:00,53.0,34.0,-100.00,ENE,71,4.0,10.0,49,0.00,,,0.00,0.000000,,2013-10-09 02:22:00,
2013-10-08 20:32:00,53.0,34.0,-100.00,ENE,71,4.0,10.0,49,0.00,,,0.00,0.000000,,2013-10-09 02:32:00,
2013-10-08 20:42:00,53.0,34.0,-100.00,ENE,71,4.0,10.0,49,0.00,,,0.00,0.000000,,2013-10-09 02:42:00,
2013-10-08 20:52:00,53.0,34.0,-100.00,ENE,71,4.0,10.0,49,0.00,,,0.00,0.000000,,2013-10-09 02:52:00,
2013-10-08 21:44:00,52.0,35.0,-100.00,NNW,337,3.0,5.0,52,0.00,,,0.00,0.000000,,2013-10-09 03:44:00,
2013-10-08 21:54:00,52.0,35.0,-100.00,NNW,337,3.0,5.0,52,0.00,,,0.00,0.000000,,2013-10-09 03:54:00,
2013-10-08 22:24:00,48.0,37.0,-100.00,North,359,5.0,10.0,66,0.00,,,0.00,0.000000,,2013-10-09 04:24:00,
2013-10-08 22:34:00,48.0,37.0,-100.00,North,359,5.0,10.0,66,0.00,,,0.00,0.000000,,2013-10-09 04:34:00,
2013-10-08 22:44:00,48.0,37.0,-100.00,North,359,5.0,10.0,66,0.00,,,0.00,0.000000,,2013-10-09 04:44:00,
2013-10-08 22:54:00,48.0,37.0,-100.00,North,359,5.0,10.0,66,0.00,,,0.00,0.000000,,2013-10-09 04:54:00,
2013-10-08 23:22:00,46.0,35.0,-100.00,NNE,17,4.0,7.0,66,0.00,,,0.00,0.000000,,2013-10-09 05:22:00,
2013-10-08 23:34:00,46.0,35.0,-100.00,NNE,17,4.0,7.0,66,0.00,,,0.00,0.000000,,2013-10-09 05:34:00,
2013-10-08 23:42:00,46.0,35.0,-100.00,NNE,17,4.0,7.0,66,0.00,,,0.00,0.000000,,2013-10-09 05:42:00,
2013-10-08 23:52:00,46.0,35.0,-100.00,NNE,17,4.0,7.0,66,0.00,,,0.00,0.000000,,2013-10-09 05:52:00,